sensor_id;sensor_type;location;lat;lon;timestamp;temperature;humidity
43679;DHT22;29279;50.858;4.392;2024-03-02T00:00:21;6.60;99.90
43679;DHT22;29279;50.858;4.392;2024-03-02T00:02:51;6.60;99.90
43679;DHT22;29279;50.858;4.392;2024-03-02T00:05:21;6.70;99.90
43679;DHT22;29279;50.858;4.392;2024-03-02T00:07:57;6.70;99.90
43679;DHT22;29279;50.858;4.392;2024-03-02T00:10:47;6.70;99.90
43679;DHT22;29279;50.858;4.392;2024-03-02T00:13:12;6.80;99.90
43679;DHT22;29279;50.858;4.392;2024-03-02T00:18:11;6.90;99.90
43679;DHT22;29279;50.858;4.392;2024-03-02T00:20:38;6.90;99.90
43679;DHT22;29279;50.858;4.392;2024-03-02T00:23:05;6.80;99.90
43679;DHT22;29279;50.858;4.392;2024-03-02T00:25:41;6.70;99.90
43679;DHT22;29279;50.858;4.392;2024-03-02T00:28:33;6.70;99.90
43679;DHT22;29279;50.858;4.392;2024-03-02T00:31:12;6.70;99.90
43679;DHT22;29279;50.858;4.392;2024-03-02T00:33:42;6.70;99.90
43679;DHT22;29279;50.858;4.392;2024-03-02T00:36:09;6.70;99.90
43679;DHT22;29279;50.858;4.392;2024-03-02T00:38:50;6.70;99.90
43679;DHT22;29279;50.858;4.392;2024-03-02T00:41:27;6.90;99.90
43679;DHT22;29279;50.858;4.392;2024-03-02T00:44:01;6.90;99.90
43679;DHT22;29279;50.858;4.392;2024-03-02T00:46:36;7.00;99.90
43679;DHT22;29279;50.858;4.392;2024-03-02T00:49:22;7.00;99.90
43679;DHT22;29279;50.858;4.392;2024-03-02T00:51:49;6.80;99.90
43679;DHT22;29279;50.858;4.392;2024-03-02T00:54:15;6.90;99.90
43679;DHT22;29279;50.858;4.392;2024-03-02T00:56:44;6.90;99.90
43679;DHT22;29279;50.858;4.392;2024-03-02T00:59:10;6.90;99.90
43679;DHT22;29279;50.858;4.392;2024-03-02T01:01:36;7.00;99.90
43679;DHT22;29279;50.858;4.392;2024-03-02T01:04:02;6.90;99.90
43679;DHT22;29279;50.858;4.392;2024-03-02T01:06:27;6.80;99.90
43679;DHT22;29279;50.858;4.392;2024-03-02T01:08:53;6.80;99.90
43679;DHT22;29279;50.858;4.392;2024-03-02T01:11:19;6.70;99.90
43679;DHT22;29279;50.858;4.392;2024-03-02T01:13:47;6.80;99.90
43679;DHT22;29279;50.858;4.392;2024-03-02T01:16:13;6.90;99.90
43679;DHT22;29279;50.858;4.392;2024-03-02T01:18:39;6.90;99.90
43679;DHT22;29279;50.858;4.392;2024-03-02T01:21:04;7.10;99.90
43679;DHT22;29279;50.858;4.392;2024-03-02T01:23:30;7.10;99.90
43679;DHT22;29279;50.858;4.392;2024-03-02T01:25:55;7.00;99.90
43679;DHT22;29279;50.858;4.392;2024-03-02T01:28:22;7.00;99.90
43679;DHT22;29279;50.858;4.392;2024-03-02T01:30:48;7.10;99.90
43679;DHT22;29279;50.858;4.392;2024-03-02T01:33:15;7.20;99.90
43679;DHT22;29279;50.858;4.392;2024-03-02T01:35:41;7.20;99.90
43679;DHT22;29279;50.858;4.392;2024-03-02T01:38:06;7.20;99.90
43679;DHT22;29279;50.858;4.392;2024-03-02T01:40:34;7.20;99.90
43679;DHT22;29279;50.858;4.392;2024-03-02T01:42:59;7.10;99.90
43679;DHT22;29279;50.858;4.392;2024-03-02T01:45:25;7.00;99.90
43679;DHT22;29279;50.858;4.392;2024-03-02T01:47:51;7.00;99.90
43679;DHT22;29279;50.858;4.392;2024-03-02T01:50:33;7.00;99.90
43679;DHT22;29279;50.858;4.392;2024-03-02T01:53:00;7.10;99.90
43679;DHT22;29279;50.858;4.392;2024-03-02T01:55:26;7.20;99.90
43679;DHT22;29279;50.858;4.392;2024-03-02T01:57:52;7.10;99.90
43679;DHT22;29279;50.858;4.392;2024-03-02T02:00:21;7.10;99.90
43679;DHT22;29279;50.858;4.392;2024-03-02T02:02:50;7.10;99.90
43679;DHT22;29279;50.858;4.392;2024-03-02T02:05:16;7.10;99.90
43679;DHT22;29279;50.858;4.392;2024-03-02T02:07:42;7.10;99.90
43679;DHT22;29279;50.858;4.392;2024-03-02T02:10:09;7.20;99.90
43679;DHT22;29279;50.858;4.392;2024-03-02T02:12:35;7.10;99.90
43679;DHT22;29279;50.858;4.392;2024-03-02T02:15:02;7.20;99.90
43679;DHT22;29279;50.858;4.392;2024-03-02T02:17:28;7.10;99.90
43679;DHT22;29279;50.858;4.392;2024-03-02T02:19:53;7.10;99.90
43679;DHT22;29279;50.858;4.392;2024-03-02T02:22:19;7.10;99.90
43679;DHT22;29279;50.858;4.392;2024-03-02T02:24:45;7.20;99.90
43679;DHT22;29279;50.858;4.392;2024-03-02T02:27:10;7.20;99.90
43679;DHT22;29279;50.858;4.392;2024-03-02T02:29:38;7.20;99.90
43679;DHT22;29279;50.858;4.392;2024-03-02T02:32:04;7.10;99.90
43679;DHT22;29279;50.858;4.392;2024-03-02T02:34:29;7.20;99.90
43679;DHT22;29279;50.858;4.392;2024-03-02T02:36:55;7.20;99.90
43679;DHT22;29279;50.858;4.392;2024-03-02T02:39:21;7.30;99.90
43679;DHT22;29279;50.858;4.392;2024-03-02T02:41:50;7.20;99.90
43679;DHT22;29279;50.858;4.392;2024-03-02T02:44:16;7.10;99.90
43679;DHT22;29279;50.858;4.392;2024-03-02T02:46:42;7.10;99.90
43679;DHT22;29279;50.858;4.392;2024-03-02T02:49:07;7.00;99.90
43679;DHT22;29279;50.858;4.392;2024-03-02T02:51:33;7.10;99.90
43679;DHT22;29279;50.858;4.392;2024-03-02T02:53:59;7.00;99.90
43679;DHT22;29279;50.858;4.392;2024-03-02T02:56:24;6.90;99.90
43679;DHT22;29279;50.858;4.392;2024-03-02T02:58:50;7.00;99.90
43679;DHT22;29279;50.858;4.392;2024-03-02T03:01:16;7.10;99.90
43679;DHT22;29279;50.858;4.392;2024-03-02T03:03:45;7.10;99.90
43679;DHT22;29279;50.858;4.392;2024-03-02T03:06:11;7.00;99.90
43679;DHT22;29279;50.858;4.392;2024-03-02T03:08:38;6.90;99.90
43679;DHT22;29279;50.858;4.392;2024-03-02T03:11:04;6.70;99.90
43679;DHT22;29279;50.858;4.392;2024-03-02T03:13:31;6.90;99.90
43679;DHT22;29279;50.858;4.392;2024-03-02T03:15:57;6.90;99.90
43679;DHT22;29279;50.858;4.392;2024-03-02T03:18:23;6.90;99.90
43679;DHT22;29279;50.858;4.392;2024-03-02T03:20:48;6.90;99.90
43679;DHT22;29279;50.858;4.392;2024-03-02T03:23:15;6.90;99.90
43679;DHT22;29279;50.858;4.392;2024-03-02T03:25:42;6.80;99.90
43679;DHT22;29279;50.858;4.392;2024-03-02T03:28:08;6.90;99.90
43679;DHT22;29279;50.858;4.392;2024-03-02T03:30:37;6.80;99.90
43679;DHT22;29279;50.858;4.392;2024-03-02T03:33:04;6.70;99.90
43679;DHT22;29279;50.858;4.392;2024-03-02T03:35:32;6.90;99.90
43679;DHT22;29279;50.858;4.392;2024-03-02T03:37:57;7.00;99.90
43679;DHT22;29279;50.858;4.392;2024-03-02T03:40:23;7.10;99.90
43679;DHT22;29279;50.858;4.392;2024-03-02T03:42:49;7.00;99.90
43679;DHT22;29279;50.858;4.392;2024-03-02T03:45:16;7.10;99.90
43679;DHT22;29279;50.858;4.392;2024-03-02T03:47:41;7.10;99.90
43679;DHT22;29279;50.858;4.392;2024-03-02T03:50:08;7.10;99.90
43679;DHT22;29279;50.858;4.392;2024-03-02T03:52:33;7.20;99.90
43679;DHT22;29279;50.858;4.392;2024-03-02T03:54:59;7.20;99.90
43679;DHT22;29279;50.858;4.392;2024-03-02T03:57:26;7.20;99.90
43679;DHT22;29279;50.858;4.392;2024-03-02T03:59:52;7.10;99.90
43679;DHT22;29279;50.858;4.392;2024-03-02T04:02:18;6.90;99.90
43679;DHT22;29279;50.858;4.392;2024-03-02T04:04:44;7.10;99.90
43679;DHT22;29279;50.858;4.392;2024-03-02T04:07:09;7.00;99.90
43679;DHT22;29279;50.858;4.392;2024-03-02T04:09:35;6.90;99.90
43679;DHT22;29279;50.858;4.392;2024-03-02T04:12:01;7.00;99.90
43679;DHT22;29279;50.858;4.392;2024-03-02T04:14:26;6.90;99.90
43679;DHT22;29279;50.858;4.392;2024-03-02T04:16:52;6.90;99.90
43679;DHT22;29279;50.858;4.392;2024-03-02T04:19:18;7.10;99.90
43679;DHT22;29279;50.858;4.392;2024-03-02T04:21:43;7.30;99.90
43679;DHT22;29279;50.858;4.392;2024-03-02T04:24:09;7.20;99.90
43679;DHT22;29279;50.858;4.392;2024-03-02T04:26:34;7.00;99.90
43679;DHT22;29279;50.858;4.392;2024-03-02T04:29:00;7.00;99.90
43679;DHT22;29279;50.858;4.392;2024-03-02T04:31:27;7.10;99.90
43679;DHT22;29279;50.858;4.392;2024-03-02T04:33:52;7.10;99.90
43679;DHT22;29279;50.858;4.392;2024-03-02T04:36:19;7.20;99.90
43679;DHT22;29279;50.858;4.392;2024-03-02T04:38:46;7.00;99.90
43679;DHT22;29279;50.858;4.392;2024-03-02T04:41:12;6.90;99.90
43679;DHT22;29279;50.858;4.392;2024-03-02T04:43:37;6.80;99.90
43679;DHT22;29279;50.858;4.392;2024-03-02T04:46:04;6.90;99.90
43679;DHT22;29279;50.858;4.392;2024-03-02T04:48:31;6.90;99.90
43679;DHT22;29279;50.858;4.392;2024-03-02T04:50:56;6.90;99.90
43679;DHT22;29279;50.858;4.392;2024-03-02T04:53:22;7.20;99.90
43679;DHT22;29279;50.858;4.392;2024-03-02T04:55:48;7.20;99.90
43679;DHT22;29279;50.858;4.392;2024-03-02T04:58:19;7.20;99.90
43679;DHT22;29279;50.858;4.392;2024-03-02T05:00:45;7.20;99.90
43679;DHT22;29279;50.858;4.392;2024-03-02T05:03:12;7.10;99.90
43679;DHT22;29279;50.858;4.392;2024-03-02T05:05:38;7.00;99.90
43679;DHT22;29279;50.858;4.392;2024-03-02T05:08:04;7.00;99.90
43679;DHT22;29279;50.858;4.392;2024-03-02T05:10:30;6.90;99.90
43679;DHT22;29279;50.858;4.392;2024-03-02T05:12:55;7.00;99.90
43679;DHT22;29279;50.858;4.392;2024-03-02T05:15:25;7.10;99.90
43679;DHT22;29279;50.858;4.392;2024-03-02T05:17:50;6.90;99.90
43679;DHT22;29279;50.858;4.392;2024-03-02T05:20:17;6.90;99.90
43679;DHT22;29279;50.858;4.392;2024-03-02T05:22:42;6.90;99.90
43679;DHT22;29279;50.858;4.392;2024-03-02T05:25:08;6.70;99.90
43679;DHT22;29279;50.858;4.392;2024-03-02T05:27:37;6.70;99.90
43679;DHT22;29279;50.858;4.392;2024-03-02T05:30:03;6.70;99.90
43679;DHT22;29279;50.858;4.392;2024-03-02T05:32:31;6.70;99.90
43679;DHT22;29279;50.858;4.392;2024-03-02T05:34:57;6.80;99.90
43679;DHT22;29279;50.858;4.392;2024-03-02T05:37:23;6.80;99.90
43679;DHT22;29279;50.858;4.392;2024-03-02T05:39:48;6.70;99.90
43679;DHT22;29279;50.858;4.392;2024-03-02T05:42:14;6.80;99.90
43679;DHT22;29279;50.858;4.392;2024-03-02T05:44:40;6.80;99.90
43679;DHT22;29279;50.858;4.392;2024-03-02T05:47:05;6.80;99.90
43679;DHT22;29279;50.858;4.392;2024-03-02T05:49:34;6.70;99.90
43679;DHT22;29279;50.858;4.392;2024-03-02T05:52:00;6.80;99.90
43679;DHT22;29279;50.858;4.392;2024-03-02T05:54:25;6.70;99.90
43679;DHT22;29279;50.858;4.392;2024-03-02T05:56:51;6.70;99.90
43679;DHT22;29279;50.858;4.392;2024-03-02T05:59:17;6.70;99.90
43679;DHT22;29279;50.858;4.392;2024-03-02T06:01:44;6.70;99.90
43679;DHT22;29279;50.858;4.392;2024-03-02T06:04:10;6.70;99.90
43679;DHT22;29279;50.858;4.392;2024-03-02T06:06:36;6.70;99.90
43679;DHT22;29279;50.858;4.392;2024-03-02T06:09:03;6.50;99.90
43679;DHT22;29279;50.858;4.392;2024-03-02T06:11:36;6.40;99.90
43679;DHT22;29279;50.858;4.392;2024-03-02T06:14:06;6.50;99.90
43679;DHT22;29279;50.858;4.392;2024-03-02T06:16:32;6.40;99.90
43679;DHT22;29279;50.858;4.392;2024-03-02T06:18:58;6.60;99.90
43679;DHT22;29279;50.858;4.392;2024-03-02T06:21:24;6.60;99.90
43679;DHT22;29279;50.858;4.392;2024-03-02T06:23:50;6.70;99.90
43679;DHT22;29279;50.858;4.392;2024-03-02T06:26:16;6.70;99.90
43679;DHT22;29279;50.858;4.392;2024-03-02T06:28:41;6.60;99.90
43679;DHT22;29279;50.858;4.392;2024-03-02T06:31:08;6.70;99.90
43679;DHT22;29279;50.858;4.392;2024-03-02T06:33:34;6.70;99.90
43679;DHT22;29279;50.858;4.392;2024-03-02T06:36:00;6.70;99.90
43679;DHT22;29279;50.858;4.392;2024-03-02T06:38:25;6.70;99.90
43679;DHT22;29279;50.858;4.392;2024-03-02T06:40:51;6.60;99.90
43679;DHT22;29279;50.858;4.392;2024-03-02T06:43:17;6.70;99.90
43679;DHT22;29279;50.858;4.392;2024-03-02T06:45:42;6.80;99.90
43679;DHT22;29279;50.858;4.392;2024-03-02T06:48:08;6.90;99.90
43679;DHT22;29279;50.858;4.392;2024-03-02T06:50:34;6.80;99.90
43679;DHT22;29279;50.858;4.392;2024-03-02T06:53:00;6.80;99.90
43679;DHT22;29279;50.858;4.392;2024-03-02T06:55:25;6.80;99.90
43679;DHT22;29279;50.858;4.392;2024-03-02T06:57:51;6.80;99.90
43679;DHT22;29279;50.858;4.392;2024-03-02T07:00:20;6.90;99.90
43679;DHT22;29279;50.858;4.392;2024-03-02T07:02:46;6.90;99.90
43679;DHT22;29279;50.858;4.392;2024-03-02T07:05:12;6.80;99.90
43679;DHT22;29279;50.858;4.392;2024-03-02T07:07:38;6.80;99.90
43679;DHT22;29279;50.858;4.392;2024-03-02T07:10:04;6.70;99.90
43679;DHT22;29279;50.858;4.392;2024-03-02T07:12:30;6.70;99.90
43679;DHT22;29279;50.858;4.392;2024-03-02T07:14:57;6.90;99.90
43679;DHT22;29279;50.858;4.392;2024-03-02T07:17:28;6.90;99.90
43679;DHT22;29279;50.858;4.392;2024-03-02T07:19:54;6.90;99.90
43679;DHT22;29279;50.858;4.392;2024-03-02T07:22:20;6.80;99.90
43679;DHT22;29279;50.858;4.392;2024-03-02T07:24:46;6.90;99.90
43679;DHT22;29279;50.858;4.392;2024-03-02T07:27:12;6.80;99.90
43679;DHT22;29279;50.858;4.392;2024-03-02T07:29:38;6.70;99.90
43679;DHT22;29279;50.858;4.392;2024-03-02T07:32:06;6.80;99.90
43679;DHT22;29279;50.858;4.392;2024-03-02T07:34:31;6.90;99.90
43679;DHT22;29279;50.858;4.392;2024-03-02T07:36:57;7.00;99.90
43679;DHT22;29279;50.858;4.392;2024-03-02T07:39:23;7.00;99.90
43679;DHT22;29279;50.858;4.392;2024-03-02T07:41:49;7.10;99.90
43679;DHT22;29279;50.858;4.392;2024-03-02T07:44:15;7.10;99.90
43679;DHT22;29279;50.858;4.392;2024-03-02T07:46:42;7.00;99.90
43679;DHT22;29279;50.858;4.392;2024-03-02T07:49:08;7.20;99.90
43679;DHT22;29279;50.858;4.392;2024-03-02T07:51:34;7.20;99.90
43679;DHT22;29279;50.858;4.392;2024-03-02T07:54:00;7.30;99.90
43679;DHT22;29279;50.858;4.392;2024-03-02T07:56:26;7.30;99.90
43679;DHT22;29279;50.858;4.392;2024-03-02T07:58:52;7.40;99.90
43679;DHT22;29279;50.858;4.392;2024-03-02T08:01:18;7.50;99.90
43679;DHT22;29279;50.858;4.392;2024-03-02T08:03:43;7.50;99.90
43679;DHT22;29279;50.858;4.392;2024-03-02T08:06:16;7.50;99.90
43679;DHT22;29279;50.858;4.392;2024-03-02T08:08:42;7.60;99.90
43679;DHT22;29279;50.858;4.392;2024-03-02T08:11:08;7.70;99.90
43679;DHT22;29279;50.858;4.392;2024-03-02T08:13:34;7.60;99.90
43679;DHT22;29279;50.858;4.392;2024-03-02T08:16:00;7.70;99.90
43679;DHT22;29279;50.858;4.392;2024-03-02T08:18:28;7.80;99.90
43679;DHT22;29279;50.858;4.392;2024-03-02T08:20:54;7.90;99.90
43679;DHT22;29279;50.858;4.392;2024-03-02T08:23:20;8.00;99.90
43679;DHT22;29279;50.858;4.392;2024-03-02T08:25:46;8.20;99.90
43679;DHT22;29279;50.858;4.392;2024-03-02T08:28:12;8.40;99.90
43679;DHT22;29279;50.858;4.392;2024-03-02T08:30:38;8.50;99.90
43679;DHT22;29279;50.858;4.392;2024-03-02T08:33:04;8.80;99.90
43679;DHT22;29279;50.858;4.392;2024-03-02T08:35:29;9.20;99.90
43679;DHT22;29279;50.858;4.392;2024-03-02T08:37:57;9.50;99.90
43679;DHT22;29279;50.858;4.392;2024-03-02T08:40:23;9.80;99.90
43679;DHT22;29279;50.858;4.392;2024-03-02T08:42:48;10.30;99.90
43679;DHT22;29279;50.858;4.392;2024-03-02T08:45:14;10.70;99.90
43679;DHT22;29279;50.858;4.392;2024-03-02T08:47:40;11.20;99.90
43679;DHT22;29279;50.858;4.392;2024-03-02T08:50:06;11.50;99.90
43679;DHT22;29279;50.858;4.392;2024-03-02T08:52:33;11.60;99.90
43679;DHT22;29279;50.858;4.392;2024-03-02T08:54:59;12.00;99.90
43679;DHT22;29279;50.858;4.392;2024-03-02T08:57:25;12.20;99.90
43679;DHT22;29279;50.858;4.392;2024-03-02T08:59:50;12.10;99.90
43679;DHT22;29279;50.858;4.392;2024-03-02T09:02:16;12.50;99.90
43679;DHT22;29279;50.858;4.392;2024-03-02T09:04:42;12.60;99.90
43679;DHT22;29279;50.858;4.392;2024-03-02T09:07:08;12.70;99.90
43679;DHT22;29279;50.858;4.392;2024-03-02T09:09:33;12.70;99.90
43679;DHT22;29279;50.858;4.392;2024-03-02T09:12:00;12.70;99.90
43679;DHT22;29279;50.858;4.392;2024-03-02T09:14:26;13.40;99.90
43679;DHT22;29279;50.858;4.392;2024-03-02T09:16:52;13.50;99.90
43679;DHT22;29279;50.858;4.392;2024-03-02T09:19:17;13.10;99.90
43679;DHT22;29279;50.858;4.392;2024-03-02T09:21:44;13.20;99.90
43679;DHT22;29279;50.858;4.392;2024-03-02T09:24:09;13.20;99.90
43679;DHT22;29279;50.858;4.392;2024-03-02T09:26:35;13.30;99.90
43679;DHT22;29279;50.858;4.392;2024-03-02T09:29:01;13.20;99.90
43679;DHT22;29279;50.858;4.392;2024-03-02T09:31:27;13.70;99.90
43679;DHT22;29279;50.858;4.392;2024-03-02T09:33:52;13.90;99.90
43679;DHT22;29279;50.858;4.392;2024-03-02T09:36:22;13.60;99.90
43679;DHT22;29279;50.858;4.392;2024-03-02T09:38:48;14.10;99.90
43679;DHT22;29279;50.858;4.392;2024-03-02T09:41:14;13.10;99.90
43679;DHT22;29279;50.858;4.392;2024-03-02T09:43:40;12.10;99.90
43679;DHT22;29279;50.858;4.392;2024-03-02T09:46:09;11.60;99.90
43679;DHT22;29279;50.858;4.392;2024-03-02T09:48:35;11.50;99.90
43679;DHT22;29279;50.858;4.392;2024-03-02T09:51:01;11.60;99.90
43679;DHT22;29279;50.858;4.392;2024-03-02T09:53:33;11.70;99.90
43679;DHT22;29279;50.858;4.392;2024-03-02T09:56:00;11.90;99.90
43679;DHT22;29279;50.858;4.392;2024-03-02T09:58:26;12.00;99.90
43679;DHT22;29279;50.858;4.392;2024-03-02T10:00:51;12.10;99.90
43679;DHT22;29279;50.858;4.392;2024-03-02T10:03:19;12.90;99.90
43679;DHT22;29279;50.858;4.392;2024-03-02T10:05:46;14.10;99.90
43679;DHT22;29279;50.858;4.392;2024-03-02T10:08:12;14.10;99.90
43679;DHT22;29279;50.858;4.392;2024-03-02T10:10:41;14.60;99.90
43679;DHT22;29279;50.858;4.392;2024-03-02T10:13:10;15.60;99.90
43679;DHT22;29279;50.858;4.392;2024-03-02T10:15:37;16.00;99.90
43679;DHT22;29279;50.858;4.392;2024-03-02T10:18:04;16.10;99.90
43679;DHT22;29279;50.858;4.392;2024-03-02T10:20:30;15.70;99.90
43679;DHT22;29279;50.858;4.392;2024-03-02T10:23:13;15.70;99.90
43679;DHT22;29279;50.858;4.392;2024-03-02T10:25:40;14.80;99.90
43679;DHT22;29279;50.858;4.392;2024-03-02T10:28:06;14.80;99.90
43679;DHT22;29279;50.858;4.392;2024-03-02T10:30:32;13.90;99.90
43679;DHT22;29279;50.858;4.392;2024-03-02T10:32:58;13.70;99.90
43679;DHT22;29279;50.858;4.392;2024-03-02T10:35:26;13.90;99.90
43679;DHT22;29279;50.858;4.392;2024-03-02T10:37:55;14.50;99.90
43679;DHT22;29279;50.858;4.392;2024-03-02T10:40:22;13.80;99.90
43679;DHT22;29279;50.858;4.392;2024-03-02T10:42:49;14.00;99.90
43679;DHT22;29279;50.858;4.392;2024-03-02T10:45:16;14.90;99.90
43679;DHT22;29279;50.858;4.392;2024-03-02T10:47:43;14.70;99.90
43679;DHT22;29279;50.858;4.392;2024-03-02T10:50:10;14.90;99.90
43679;DHT22;29279;50.858;4.392;2024-03-02T10:52:36;15.00;99.90
43679;DHT22;29279;50.858;4.392;2024-03-02T10:55:02;14.60;99.90
43679;DHT22;29279;50.858;4.392;2024-03-02T10:57:43;14.60;99.90
43679;DHT22;29279;50.858;4.392;2024-03-02T11:00:12;13.70;99.90
43679;DHT22;29279;50.858;4.392;2024-03-02T11:02:51;13.70;99.90
43679;DHT22;29279;50.858;4.392;2024-03-02T11:05:28;14.20;99.90
43679;DHT22;29279;50.858;4.392;2024-03-02T11:08:02;14.20;99.90
43679;DHT22;29279;50.858;4.392;2024-03-02T11:10:36;13.60;99.90
43679;DHT22;29279;50.858;4.392;2024-03-02T11:13:05;13.30;99.90
43679;DHT22;29279;50.858;4.392;2024-03-02T11:15:34;13.00;99.90
43679;DHT22;29279;50.858;4.392;2024-03-02T11:18:05;13.90;99.90
43679;DHT22;29279;50.858;4.392;2024-03-02T11:20:36;14.70;99.90
43679;DHT22;29279;50.858;4.392;2024-03-02T11:23:06;14.30;99.90
43679;DHT22;29279;50.858;4.392;2024-03-02T11:25:33;13.70;99.90
43679;DHT22;29279;50.858;4.392;2024-03-02T11:27:59;13.30;99.90
43679;DHT22;29279;50.858;4.392;2024-03-02T11:33:01;13.30;99.90
43679;DHT22;29279;50.858;4.392;2024-03-02T11:35:36;13.60;99.90
43679;DHT22;29279;50.858;4.392;2024-03-02T11:38:06;14.10;99.90
43679;DHT22;29279;50.858;4.392;2024-03-02T11:40:32;14.50;99.90
43679;DHT22;29279;50.858;4.392;2024-03-02T11:43:01;14.30;99.90
43679;DHT22;29279;50.858;4.392;2024-03-02T11:45:27;14.10;99.90
43679;DHT22;29279;50.858;4.392;2024-03-02T11:47:54;13.90;99.90
43679;DHT22;29279;50.858;4.392;2024-03-02T11:50:30;14.30;99.90
43679;DHT22;29279;50.858;4.392;2024-03-02T11:52:58;14.80;99.90
43679;DHT22;29279;50.858;4.392;2024-03-02T11:55:25;14.90;99.90
43679;DHT22;29279;50.858;4.392;2024-03-02T11:57:52;15.50;99.90
43679;DHT22;29279;50.858;4.392;2024-03-02T12:00:19;16.50;99.90
43679;DHT22;29279;50.858;4.392;2024-03-02T12:03:00;16.60;99.90
43679;DHT22;29279;50.858;4.392;2024-03-02T12:05:27;16.80;99.90
43679;DHT22;29279;50.858;4.392;2024-03-02T12:08:03;16.90;99.90
43679;DHT22;29279;50.858;4.392;2024-03-02T12:10:29;16.00;99.90
43679;DHT22;29279;50.858;4.392;2024-03-02T12:13:08;15.30;99.90
43679;DHT22;29279;50.858;4.392;2024-03-02T12:15:41;14.70;99.90
43679;DHT22;29279;50.858;4.392;2024-03-02T12:18:06;14.30;99.90
43679;DHT22;29279;50.858;4.392;2024-03-02T12:20:33;15.00;99.90
43679;DHT22;29279;50.858;4.392;2024-03-02T12:23:03;15.70;99.90
43679;DHT22;29279;50.858;4.392;2024-03-02T12:25:30;15.90;99.90
43679;DHT22;29279;50.858;4.392;2024-03-02T12:27:58;16.00;99.90
43679;DHT22;29279;50.858;4.392;2024-03-02T12:30:27;17.00;99.90
43679;DHT22;29279;50.858;4.392;2024-03-02T12:32:54;16.90;99.60
43679;DHT22;29279;50.858;4.392;2024-03-02T12:35:20;16.70;99.90
43679;DHT22;29279;50.858;4.392;2024-03-02T12:37:51;16.00;99.90
43679;DHT22;29279;50.858;4.392;2024-03-02T12:40:18;15.10;99.90
43679;DHT22;29279;50.858;4.392;2024-03-02T12:42:45;14.70;99.90
43679;DHT22;29279;50.858;4.392;2024-03-02T12:45:12;14.70;99.90
43679;DHT22;29279;50.858;4.392;2024-03-02T12:47:40;14.40;99.90
43679;DHT22;29279;50.858;4.392;2024-03-02T12:50:06;14.20;99.90
43679;DHT22;29279;50.858;4.392;2024-03-02T12:52:32;14.10;99.90
43679;DHT22;29279;50.858;4.392;2024-03-02T12:55:00;14.40;99.90
43679;DHT22;29279;50.858;4.392;2024-03-02T12:57:26;14.60;99.90
43679;DHT22;29279;50.858;4.392;2024-03-02T12:59:59;15.20;99.90
43679;DHT22;29279;50.858;4.392;2024-03-02T13:02:30;16.00;99.90
43679;DHT22;29279;50.858;4.392;2024-03-02T13:04:57;15.90;99.90
43679;DHT22;29279;50.858;4.392;2024-03-02T13:07:24;15.40;99.90
43679;DHT22;29279;50.858;4.392;2024-03-02T13:09:50;15.00;99.90
43679;DHT22;29279;50.858;4.392;2024-03-02T13:12:17;15.20;99.90
43679;DHT22;29279;50.858;4.392;2024-03-02T13:14:44;15.10;99.90
43679;DHT22;29279;50.858;4.392;2024-03-02T13:17:10;14.70;99.90
43679;DHT22;29279;50.858;4.392;2024-03-02T13:19:36;14.40;99.90
43679;DHT22;29279;50.858;4.392;2024-03-02T13:22:01;14.10;99.90
43679;DHT22;29279;50.858;4.392;2024-03-02T13:24:30;14.00;99.90
43679;DHT22;29279;50.858;4.392;2024-03-02T13:26:56;13.90;99.90
43679;DHT22;29279;50.858;4.392;2024-03-02T13:29:23;13.80;99.90
43679;DHT22;29279;50.858;4.392;2024-03-02T13:31:50;13.60;99.90
43679;DHT22;29279;50.858;4.392;2024-03-02T13:34:15;13.60;99.90
43679;DHT22;29279;50.858;4.392;2024-03-02T13:36:41;13.50;99.90
43679;DHT22;29279;50.858;4.392;2024-03-02T13:39:07;13.50;99.90
43679;DHT22;29279;50.858;4.392;2024-03-02T13:41:36;13.50;99.90
43679;DHT22;29279;50.858;4.392;2024-03-02T13:44:01;13.50;99.90
43679;DHT22;29279;50.858;4.392;2024-03-02T13:46:28;13.60;99.90
43679;DHT22;29279;50.858;4.392;2024-03-02T13:48:54;13.60;99.90
43679;DHT22;29279;50.858;4.392;2024-03-02T13:51:20;13.50;99.90
43679;DHT22;29279;50.858;4.392;2024-03-02T13:53:46;13.50;99.90
43679;DHT22;29279;50.858;4.392;2024-03-02T13:56:12;13.50;99.90
43679;DHT22;29279;50.858;4.392;2024-03-02T13:58:38;13.50;99.90
43679;DHT22;29279;50.858;4.392;2024-03-02T14:01:05;13.50;99.90
43679;DHT22;29279;50.858;4.392;2024-03-02T14:03:31;13.40;99.90
43679;DHT22;29279;50.858;4.392;2024-03-02T14:05:56;13.40;99.90
43679;DHT22;29279;50.858;4.392;2024-03-02T14:08:26;13.40;99.90
43679;DHT22;29279;50.858;4.392;2024-03-02T14:10:52;13.30;99.90
43679;DHT22;29279;50.858;4.392;2024-03-02T14:13:18;13.20;99.90
43679;DHT22;29279;50.858;4.392;2024-03-02T14:15:44;13.20;99.90
43679;DHT22;29279;50.858;4.392;2024-03-02T14:18:11;13.20;99.90
43679;DHT22;29279;50.858;4.392;2024-03-02T14:20:36;13.20;99.90
43679;DHT22;29279;50.858;4.392;2024-03-02T14:23:03;13.10;99.90
43679;DHT22;29279;50.858;4.392;2024-03-02T14:25:30;12.90;99.90
43679;DHT22;29279;50.858;4.392;2024-03-02T14:27:59;12.80;99.90
43679;DHT22;29279;50.858;4.392;2024-03-02T14:30:25;12.70;99.90
43679;DHT22;29279;50.858;4.392;2024-03-02T14:32:52;12.70;99.90
43679;DHT22;29279;50.858;4.392;2024-03-02T14:35:17;12.40;99.90
43679;DHT22;29279;50.858;4.392;2024-03-02T14:37:44;12.40;99.90
43679;DHT22;29279;50.858;4.392;2024-03-02T14:40:10;12.50;99.90
43679;DHT22;29279;50.858;4.392;2024-03-02T14:42:36;12.70;99.90
43679;DHT22;29279;50.858;4.392;2024-03-02T14:45:02;12.70;99.90
43679;DHT22;29279;50.858;4.392;2024-03-02T14:47:31;12.70;99.90
43679;DHT22;29279;50.858;4.392;2024-03-02T14:49:58;12.70;99.90
43679;DHT22;29279;50.858;4.392;2024-03-02T14:52:23;12.80;99.90
43679;DHT22;29279;50.858;4.392;2024-03-02T14:54:49;12.80;99.90
43679;DHT22;29279;50.858;4.392;2024-03-02T14:57:15;12.80;99.90
43679;DHT22;29279;50.858;4.392;2024-03-02T14:59:40;12.90;99.90
43679;DHT22;29279;50.858;4.392;2024-03-02T15:02:07;13.00;99.90
43679;DHT22;29279;50.858;4.392;2024-03-02T15:04:33;13.00;99.90
43679;DHT22;29279;50.858;4.392;2024-03-02T15:06:59;12.90;99.90
43679;DHT22;29279;50.858;4.392;2024-03-02T15:09:25;13.00;99.90
43679;DHT22;29279;50.858;4.392;2024-03-02T15:11:50;13.10;99.90
43679;DHT22;29279;50.858;4.392;2024-03-02T15:14:16;12.90;99.90
43679;DHT22;29279;50.858;4.392;2024-03-02T15:16:42;13.00;99.90
43679;DHT22;29279;50.858;4.392;2024-03-02T15:19:08;12.70;99.90
43679;DHT22;29279;50.858;4.392;2024-03-02T15:21:33;12.30;99.90
43679;DHT22;29279;50.858;4.392;2024-03-02T15:23:59;12.20;99.90
43679;DHT22;29279;50.858;4.392;2024-03-02T15:26:25;12.00;99.90
43679;DHT22;29279;50.858;4.392;2024-03-02T15:28:51;12.00;99.90
43679;DHT22;29279;50.858;4.392;2024-03-02T15:31:20;12.00;99.90
43679;DHT22;29279;50.858;4.392;2024-03-02T15:33:46;12.10;99.90
43679;DHT22;29279;50.858;4.392;2024-03-02T15:36:12;12.20;99.90
43679;DHT22;29279;50.858;4.392;2024-03-02T15:38:37;12.30;99.90
43679;DHT22;29279;50.858;4.392;2024-03-02T15:41:04;12.30;99.90
43679;DHT22;29279;50.858;4.392;2024-03-02T15:43:30;12.30;99.90